Time;durP1;ratioP1;P1;durP2;ratioP2;P2;SDS_P1;SDS_P2;PMS_P1;PMS_P2;Temp;Humidity;BMP_temperature;BMP_pressure;BME280_temperature;BME280_humidity;BME280_pressure;Samples;Min_cycle;Max_cycle;Signal;HPM_P1;HPM_P2
2022/03/14 00:00:18;;;;;;;0.40;0.40;;;;;;;9.29;24.63;101793.91;695668;28;45263;-67
2022/03/14 00:00:40;;;;;;;0.40;0.40;;;;;;;9.26;24.60;101802.28;693865;28;83181;-66
2022/03/14 00:01:01;;;;;;;0.40;0.40;;;;;;;9.28;24.63;101801.16;695213;28;45268;-66
2022/03/14 00:01:22;;;;;;;0.30;0.30;;;;;;;9.28;24.53;101806.56;695512;28;22389;-67
2022/03/14 00:01:44;;;;;;;0.38;0.38;;;;;;;9.29;24.45;101802.00;695918;28;23448;-67
2022/03/14 00:02:05;;;;;;;0.50;0.50;;;;;;;9.30;24.61;101809.13;695926;28;45294;-67
2022/03/14 00:02:26;;;;;;;0.50;0.50;;;;;;;9.28;24.70;101801.16;696520;28;23475;-66
2022/03/14 00:02:47;;;;;;;0.40;0.40;;;;;;;9.30;24.47;101806.41;696688;28;21277;-66
2022/03/14 00:03:10;;;;;;;0.40;0.40;;;;;;;9.27;24.46;101804.00;701875;28;19569;-66
2022/03/14 00:03:38;;;;;;;0.30;0.30;;;;;;;9.21;24.39;101802.72;699818;28;69469;-67
2022/03/14 00:03:59;;;;;;;0.50;0.50;;;;;;;9.20;24.39;101801.03;697349;28;137583;-66
2022/03/14 00:04:23;;;;;;;0.40;0.40;;;;;;;9.19;24.59;101800.16;701638;28;22411;-65
2022/03/14 00:04:47;;;;;;;0.40;0.40;;;;;;;9.18;24.43;101801.19;700298;28;67543;-67
2022/03/14 00:05:15;;;;;;;0.40;0.40;;;;;;;9.18;24.60;101801.19;694596;28;113642;-65
2022/03/14 00:05:36;;;;;;;0.47;0.47;;;;;;;9.18;24.49;101801.19;692436;28;136398;-65
2022/03/14 00:05:58;;;;;;;0.50;0.50;;;;;;;9.20;24.60;101799.19;696232;28;21533;-66
2022/03/14 00:06:20;;;;;;;0.45;0.45;;;;;;;9.20;24.69;101796.50;695164;28;45267;-66
2022/03/14 00:06:43;;;;;;;0.40;0.40;;;;;;;9.22;24.69;101800.91;696050;28;22432;-66
2022/03/14 00:07:04;;;;;;;0.38;0.38;;;;;;;9.22;25.01;101803.59;693809;28;92302;-66
2022/03/14 00:07:26;;;;;;;0.40;0.40;;;;;;;9.20;24.87;101799.19;696711;28;22424;-66
2022/03/14 00:07:47;;;;;;;0.50;0.50;;;;;;;9.20;25.21;101796.50;695952;28;44383;-66
2022/03/14 00:08:09;;;;;;;0.50;0.50;;;;;;;9.22;24.92;101806.28;696524;28;22333;-66
2022/03/14 00:08:31;;;;;;;0.40;0.40;;;;;;;9.18;24.87;101800.31;696743;28;22387;-67
2022/03/14 00:08:55;;;;;;;0.40;0.40;;;;;;;9.20;24.97;101807.28;694668;28;70387;-67
2022/03/14 00:09:17;;;;;;;0.40;0.40;;;;;;;9.14;24.83;101797.06;693148;28;108982;-66
2022/03/14 00:09:38;;;;;;;0.50;0.50;;;;;;;9.16;25.09;101808.53;694974;28;44409;-69
2022/03/14 00:09:59;;;;;;;0.50;0.50;;;;;;;9.17;25.04;101801.31;701051;28;45467;-66
2022/03/14 00:10:21;;;;;;;0.40;0.40;;;;;;;9.15;25.04;101805.97;702224;28;1266;-67
2022/03/14 00:10:45;;;;;;;0.40;0.40;;;;;;;9.13;24.89;101807.97;700977;28;47287;-67
2022/03/14 00:11:06;;;;;;;0.35;0.35;;;;;;;9.12;24.95;101804.44;699124;28;90522;-66
2022/03/14 00:11:28;;;;;;;0.50;0.50;;;;;;;9.11;25.16;101807.28;701593;28;22408;-67
2022/03/14 00:11:51;;;;;;;0.47;0.47;;;;;;;9.09;25.11;101806.53;698388;28;43308;-66
2022/03/14 00:12:25;;;;;;;0.40;0.40;;;;;;;9.07;25.20;101809.38;694559;28;69503;-67
2022/03/14 00:12:48;;;;;;;0.30;0.30;;;;;;;9.00;25.04;101800.16;692381;28;137222;-67
2022/03/14 00:13:10;;;;;;;0.40;0.40;;;;;;;8.99;25.33;101809.25;694689;28;69538;-65
2022/03/14 00:13:33;;;;;;;0.50;0.50;;;;;;;8.97;25.12;101812.06;695542;28;46358;-66
2022/03/14 00:13:57;;;;;;;0.50;0.50;;;;;;;8.97;25.04;101811.22;695545;28;43934;-66
2022/03/14 00:14:19;;;;;;;0.40;0.40;;;;;;;8.95;25.68;101810.50;692928;28;115123;-67
2022/03/14 00:14:40;;;;;;;0.40;0.40;;;;;;;8.96;25.30;101809.50;696117;28;22178;-66
2022/03/14 00:15:08;;;;;;;0.40;0.40;;;;;;;8.92;25.38;101811.66;695362;28;45244;-67
2022/03/14 00:15:30;;;;;;;0.50;0.50;;;;;;;8.89;25.40;101811.09;692681;28;136182;-67
2022/03/14 00:15:52;;;;;;;0.40;0.40;;;;;;;8.87;25.34;101808.53;695165;28;67092;-66
2022/03/14 00:16:23;;;;;;;0.40;0.40;;;;;;;8.83;25.27;101813.31;695777;28;44412;-68
2022/03/14 00:16:45;;;;;;;0.32;0.32;;;;;;;8.80;25.32;101805.53;691549;28;137734;-67
2022/03/14 00:17:10;;;;;;;0.47;0.47;;;;;;;8.78;25.42;101810.22;694929;28;69396;-67
2022/03/14 00:17:32;;;;;;;0.50;0.50;;;;;;;8.79;25.40;101816.44;692323;28;115103;-67
2022/03/14 00:17:54;;;;;;;0.40;0.40;;;;;;;8.78;25.43;101812.06;695678;28;44483;-66
2022/03/14 00:18:16;;;;;;;0.40;0.40;;;;;;;8.79;25.46;101813.75;696596;28;22386;-66
2022/03/14 00:18:39;;;;;;;0.30;0.30;;;;;;;8.81;25.55;101801.00;694686;28;69449;-66
2022/03/14 00:19:01;;;;;;;0.47;0.47;;;;;;;8.82;25.34;101818.84;694528;28;69410;-66
2022/03/14 00:19:23;;;;;;;0.50;0.50;;;;;;;8.82;25.73;101816.16;696268;28;29685;-68
2022/03/14 00:19:44;;;;;;;0.50;0.50;;;;;;;8.84;25.69;101808.81;695827;28;22383;-66
2022/03/14 00:20:08;;;;;;;0.40;0.40;;;;;;;8.80;25.57;101802.81;696497;28;23234;-68
2022/03/14 00:20:30;;;;;;;0.40;0.40;;;;;;;8.82;25.66;101817.03;693482;28;92251;-66
2022/03/14 00:20:51;;;;;;;0.45;0.45;;;;;;;8.83;25.72;101805.25;695626;28;44334;-65
2022/03/14 00:21:12;;;;;;;0.50;0.50;;;;;;;8.79;25.80;101805.66;696184;28;23742;-68
2022/03/14 00:21:35;;;;;;;0.50;0.50;;;;;;;8.78;25.65;101803.97;695616;28;22421;-66
2022/03/14 00:21:57;;;;;;;0.40;0.40;;;;;;;8.76;25.90;101809.50;694103;28;90767;-66
2022/03/14 00:22:22;;;;;;;0.40;0.40;;;;;;;8.74;25.86;101811.47;694815;28;69457;-66
2022/03/14 00:22:45;;;;;;;0.40;0.40;;;;;;;8.72;25.75;101809.91;694566;28;69332;-66
2022/03/14 00:23:08;;;;;;;0.50;0.50;;;;;;;8.70;25.89;101806.50;693692;28;93507;-66
2022/03/14 00:23:29;;;;;;;0.45;0.45;;;;;;;8.69;25.74;101802.13;695720;28;45264;-67
2022/03/14 00:23:53;;;;;;;0.40;0.40;;;;;;;8.71;25.69;101806.34;694249;28;69713;-65
2022/03/14 00:24:16;;;;;;;0.40;0.40;;;;;;;8.69;25.81;101805.66;694535;28;70327;-67
2022/03/14 00:24:37;;;;;;;0.40;0.40;;;;;;;8.73;25.72;101806.22;694705;28;67562;-66
2022/03/14 00:24:58;;;;;;;0.50;0.50;;;;;;;8.73;25.64;101804.41;696589;28;22375;-66
2022/03/14 00:25:19;;;;;;;0.50;0.50;;;;;;;8.72;25.68;101807.22;696391;28;23482;-66
2022/03/14 00:25:41;;;;;;;0.40;0.40;;;;;;;8.70;25.67;101804.66;696059;28;23475;-66
2022/03/14 00:26:04;;;;;;;0.40;0.40;;;;;;;8.71;25.88;101803.66;695383;28;45267;-66
2022/03/14 00:26:26;;;;;;;0.40;0.40;;;;;;;8.69;25.80;101804.81;694009;28;92163;-66
2022/03/14 00:26:50;;;;;;;0.50;0.50;;;;;;;8.67;25.81;101799.56;693263;28;90074;-66
2022/03/14 00:27:12;;;;;;;0.50;0.50;;;;;;;8.68;25.66;101800.41;694826;28;70057;-66
2022/03/14 00:27:35;;;;;;;0.40;0.40;;;;;;;8.66;25.76;101795.16;696857;28;22410;-66
2022/03/14 00:27:56;;;;;;;0.40;0.40;;;;;;;8.71;25.77;101805.50;694530;28;67520;-66
2022/03/14 00:28:17;;;;;;;0.40;0.40;;;;;;;8.71;25.64;101798.28;696448;28;23698;-66
2022/03/14 00:28:39;;;;;;;0.50;0.50;;;;;;;8.70;25.73;101801.97;696443;28;21541;-66
2022/03/14 00:29:01;;;;;;;0.50;0.50;;;;;;;8.66;25.71;101804.06;692482;28;46324;-66
2022/03/14 00:29:22;;;;;;;0.40;0.40;;;;;;;8.63;25.77;101800.81;693160;28;47138;-66
2022/03/14 00:29:43;;;;;;;0.40;0.40;;;;;;;8.61;25.74;101806.34;693499;28;15517;-67
2022/03/14 00:30:09;;;;;;;0.40;0.40;;;;;;;8.59;25.88;101805.63;692866;28;21438;-66
2022/03/14 00:30:32;;;;;;;0.50;0.50;;;;;;;8.59;25.72;101799.38;689257;28;136742;-68
2022/03/14 00:30:53;;;;;;;0.45;0.45;;;;;;;8.60;25.79;101806.47;694035;28;23565;-66
2022/03/14 00:31:15;;;;;;;0.40;0.40;;;;;;;8.60;25.77;101801.94;697021;28;21052;-66
2022/03/14 00:31:37;;;;;;;0.40;0.40;;;;;;;8.61;25.62;101797.41;694503;28;46505;-67
2022/03/14 00:31:58;;;;;;;0.32;0.32;;;;;;;8.63;25.54;101804.34;695611;28;47081;-65
2022/03/14 00:32:19;;;;;;;0.40;0.40;;;;;;;8.62;25.54;101799.97;696495;28;21343;-66
2022/03/14 00:32:42;;;;;;;0.50;0.50;;;;;;;8.63;25.72;101801.66;696281;28;11138;-66
2022/03/14 00:33:03;;;;;;;0.40;0.40;;;;;;;8.64;25.54;101802.53;694859;28;69856;-68
2022/03/14 00:33:24;;;;;;;0.40;0.40;;;;;;;8.66;25.36;101797.84;696234;28;21667;-66
2022/03/14 00:33:45;;;;;;;0.40;0.40;;;;;;;8.68;25.38;101809.31;696701;28;21355;-66
2022/03/14 00:34:08;;;;;;;0.50;0.50;;;;;;;8.67;25.67;101799.56;696523;28;21547;-66
2022/03/14 00:34:29;;;;;;;0.50;0.50;;;;;;;8.64;25.77;101803.38;695066;28;69409;-67
2022/03/14 00:34:50;;;;;;;0.50;0.50;;;;;;;8.63;25.68;101798.97;696018;28;23476;-66
2022/03/14 00:35:11;;;;;;;0.40;0.40;;;;;;;8.59;25.92;101797.56;696573;28;22419;-67
2022/03/14 00:35:33;;;;;;;0.40;0.40;;;;;;;8.57;25.86;101796.81;696621;28;21583;-66
2022/03/14 00:35:55;;;;;;;0.40;0.40;;;;;;;8.53;25.96;101798.09;695728;28;44567;-66
2022/03/14 00:36:19;;;;;;;0.50;0.50;;;;;;;8.55;26.00;101795.28;696680;28;1661;-66
2022/03/14 00:36:42;;;;;;;0.40;0.40;;;;;;;8.56;25.86;101795.13;693789;28;67631;-66
2022/03/14 00:37:04;;;;;;;0.40;0.40;;;;;;;8.59;26.02;101804.75;694947;28;67506;-67
2022/03/14 00:37:25;;;;;;;0.40;0.40;;;;;;;8.59;25.94;101800.25;696687;28;22388;-68
2022/03/14 00:37:46;;;;;;;0.40;0.40;;;;;;;8.59;26.03;101796.69;695333;28;46499;-66
2022/03/14 00:38:07;;;;;;;0.52;0.52;;;;;;;8.57;25.93;101802.22;696124;28;21405;-66
2022/03/14 00:38:30;;;;;;;0.50;0.50;;;;;;;8.55;25.73;101801.50;695970;28;45283;-66
2022/03/14 00:38:52;;;;;;;0.40;0.40;;;;;;;8.53;25.75;101794.56;695521;28;46503;-67
2022/03/14 00:39:13;;;;;;;0.40;0.40;;;;;;;8.54;25.92;101799.81;695804;28;46303;-66
2022/03/14 00:39:35;;;;;;;0.40;0.40;;;;;;;8.55;25.93;101797.97;695786;28;22226;-66
2022/03/14 00:39:57;;;;;;;0.50;0.50;;;;;;;8.57;26.03;101798.66;695236;28;45057;-66
2022/03/14 00:40:18;;;;;;;0.50;0.50;;;;;;;8.59;25.96;101794.00;695781;28;46296;-65
2022/03/14 00:40:42;;;;;;;0.40;0.40;;;;;;;8.55;26.13;101790.72;693955;28;90350;-66
2022/03/14 00:41:04;;;;;;;0.40;0.40;;;;;;;8.52;26.08;101801.78;696475;28;22421;-67
2022/03/14 00:41:25;;;;;;;0.40;0.40;;;;;;;8.48;26.22;101785.06;695839;28;44583;-66
2022/03/14 00:41:46;;;;;;;0.43;0.43;;;;;;;8.47;26.17;101787.88;695190;28;22562;-66
2022/03/14 00:42:08;;;;;;;0.60;0.60;;;;;;;8.45;26.28;101798.78;696367;28;21306;-66
2022/03/14 00:42:30;;;;;;;0.50;0.50;;;;;;;8.43;26.57;101790.00;696515;28;23456;-65
2022/03/14 00:42:57;;;;;;;0.40;0.40;;;;;;;8.43;26.56;101791.78;692334;28;137907;-66
2022/03/14 00:43:18;;;;;;;0.40;0.40;;;;;;;8.38;26.34;101794.06;696603;28;23501;-66
2022/03/14 00:43:39;;;;;;;0.40;0.40;;;;;;;8.36;26.38;101790.66;695915;28;44264;-66
2022/03/14 00:44:02;;;;;;;0.60;0.60;;;;;;;8.34;26.58;101796.19;696406;28;22410;-66
2022/03/14 00:44:23;;;;;;;0.50;0.50;;;;;;;8.33;26.66;101791.78;694842;28;67530;-68
2022/03/14 00:44:44;;;;;;;0.40;0.40;;;;;;;8.33;26.59;101793.63;696522;28;24334;-66
2022/03/14 00:45:08;;;;;;;0.40;0.40;;;;;;;8.35;26.73;101794.31;696401;28;21510;-66
2022/03/14 00:45:31;;;;;;;0.30;0.30;;;;;;;8.36;26.67;101796.88;694317;28;90783;-66
2022/03/14 00:45:52;;;;;;;0.50;0.50;;;;;;;8.35;26.67;101787.09;694469;28;69519;-66
2022/03/14 00:46:16;;;;;;;0.50;0.50;;;;;;;8.33;26.70;101797.16;696602;28;21420;-66
2022/03/14 00:46:39;;;;;;;0.47;0.47;;;;;;;8.35;26.62;101797.88;693011;28;92054;-66
2022/03/14 00:47:01;;;;;;;0.40;0.40;;;;;;;8.35;26.62;101797.88;694942;28;69547;-65
2022/03/14 00:47:23;;;;;;;0.30;0.30;;;;;;;8.35;26.32;101786.25;694695;28;44397;-66
2022/03/14 00:47:44;;;;;;;0.43;0.43;;;;;;;8.38;26.45;101792.22;696260;28;22414;-66
2022/03/14 00:48:05;;;;;;;0.50;0.50;;;;;;;8.38;26.44;101794.06;696155;28;21431;-66
2022/03/14 00:48:26;;;;;;;0.50;0.50;;;;;;;8.40;26.27;101794.75;696282;28;22406;-66
2022/03/14 00:48:48;;;;;;;0.40;0.40;;;;;;;8.42;26.50;101792.81;695420;28;46278;-67
2022/03/14 00:49:11;;;;;;;0.40;0.40;;;;;;;8.41;26.27;101791.09;695611;28;46227;-65
2022/03/14 00:49:33;;;;;;;0.40;0.40;;;;;;;8.40;26.13;101794.75;694900;28;45303;-67
2022/03/14 00:49:55;;;;;;;0.50;0.50;;;;;;;8.41;26.28;101799.16;694811;28;68384;-66
2022/03/14 00:50:17;;;;;;;0.50;0.50;;;;;;;8.40;26.09;101797.44;696023;28;23466;-66
2022/03/14 00:50:38;;;;;;;0.40;0.40;;;;;;;8.39;26.12;101796.63;695287;28;45323;-66
2022/03/14 00:50:59;;;;;;;0.40;0.40;;;;;;;8.42;26.08;101798.19;696138;28;23477;-66
2022/03/14 00:51:20;;;;;;;0.50;0.50;;;;;;;8.44;25.73;101797.06;695841;28;23433;-66
2022/03/14 00:51:42;;;;;;;0.50;0.50;;;;;;;8.45;26.29;101798.78;695324;28;22438;-67
2022/03/14 00:52:04;;;;;;;0.50;0.50;;;;;;;8.47;26.02;101804.03;695531;28;46585;-67
2022/03/14 00:52:26;;;;;;;0.50;0.50;;;;;;;8.47;26.08;101801.34;695002;28;67534;-67
2022/03/14 00:52:47;;;;;;;0.40;0.40;;;;;;;8.45;26.11;101793.41;696154;28;21527;-66
2022/03/14 00:53:08;;;;;;;0.40;0.40;;;;;;;8.42;26.01;101792.81;696166;28;22375;-67
2022/03/14 00:53:31;;;;;;;0.50;0.50;;;;;;;8.41;25.98;101791.09;696475;28;22563;-65
2022/03/14 00:53:52;;;;;;;0.50;0.50;;;;;;;8.40;26.15;101795.63;695120;28;67478;-66
2022/03/14 00:54:13;;;;;;;0.50;0.50;;;;;;;8.38;26.09;101797.59;696458;28;22414;-66
2022/03/14 00:54:34;;;;;;;0.40;0.40;;;;;;;8.39;26.02;101791.22;696438;28;21587;-66
2022/03/14 00:54:56;;;;;;;0.40;0.40;;;;;;;8.41;26.03;101797.31;696148;28;22382;-66
2022/03/14 00:55:17;;;;;;;0.40;0.40;;;;;;;8.43;25.94;101795.41;695240;28;46306;-66
2022/03/14 00:55:38;;;;;;;0.50;0.50;;;;;;;8.44;25.89;101797.06;696103;28;22403;-66
2022/03/14 00:55:59;;;;;;;0.50;0.50;;;;;;;8.45;25.74;101798.78;696011;28;21434;-66
2022/03/14 00:56:21;;;;;;;0.40;0.40;;;;;;;8.47;25.65;101802.19;696172;28;23267;-66
2022/03/14 00:56:42;;;;;;;0.40;0.40;;;;;;;8.51;25.64;101801.91;695288;28;44408;-66
2022/03/14 00:57:04;;;;;;;0.40;0.40;;;;;;;8.50;25.59;101797.53;696869;28;21352;-67
2022/03/14 00:57:25;;;;;;;0.50;0.50;;;;;;;8.45;25.63;101796.09;695867;28;45061;-68
2022/03/14 00:57:46;;;;;;;0.50;0.50;;;;;;;8.47;25.87;101790.56;696638;28;21556;-66
2022/03/14 00:58:08;;;;;;;0.50;0.50;;;;;;;8.49;25.86;101793.97;696461;28;22386;-66
2022/03/14 00:58:29;;;;;;;0.40;0.40;;;;;;;8.47;25.77;101791.41;695869;28;44431;-66
2022/03/14 00:58:50;;;;;;;0.40;0.40;;;;;;;8.46;25.94;101789.72;696054;28;23520;-66
2022/03/14 00:59:14;;;;;;;0.50;0.50;;;;;;;8.48;25.98;101797.69;693695;28;92345;-67
2022/03/14 00:59:39;;;;;;;0.50;0.50;;;;;;;8.49;25.87;101793.97;695630;28;22456;-66
2022/03/14 01:00:01;;;;;;;0.50;0.50;;;;;;;8.46;26.00;101797.81;693154;28;113369;-66
2022/03/14 01:00:24;;;;;;;0.40;0.40;;;;;;;8.44;25.95;101794.38;695652;28;43461;-66
2022/03/14 01:00:48;;;;;;;0.40;0.40;;;;;;;8.45;25.74;101793.41;693998;28;70254;-67
2022/03/14 01:01:09;;;;;;;0.45;0.45;;;;;;;8.45;26.02;101792.56;693287;28;114948;-67
2022/03/14 01:01:31;;;;;;;0.50;0.50;;;;;;;8.46;25.92;101792.44;695985;28;7522;-66
2022/03/14 01:01:53;;;;;;;0.50;0.50;;;;;;;8.45;25.50;101793.41;695151;28;44369;-66
2022/03/14 01:02:15;;;;;;;0.40;0.40;;;;;;;8.46;25.67;101792.44;695096;28;45279;-66
2022/03/14 01:02:36;;;;;;;0.40;0.40;;;;;;;8.47;25.65;101791.41;696612;28;23481;-66
2022/03/14 01:02:59;;;;;;;0.40;0.40;;;;;;;8.47;25.60;101790.56;696421;28;22361;-66
2022/03/14 01:03:20;;;;;;;0.50;0.50;;;;;;;8.48;25.83;101795.81;694469;28;68542;-66
2022/03/14 01:03:41;;;;;;;0.50;0.50;;;;;;;8.47;25.67;101791.41;695293;28;45259;-67
2022/03/14 01:04:03;;;;;;;0.50;0.50;;;;;;;8.46;25.58;101788.88;696657;28;22135;-67
2022/03/14 01:04:25;;;;;;;0.40;0.40;;;;;;;8.43;25.67;101795.41;695462;28;46318;-67
2022/03/14 01:04:46;;;;;;;0.40;0.40;;;;;;;8.41;25.87;101794.63;695924;28;47179;-66
2022/03/14 01:05:08;;;;;;;0.43;0.43;;;;;;;8.37;26.05;101795.03;696466;28;20480;-66
2022/03/14 01:05:29;;;;;;;0.50;0.50;;;;;;;8.38;26.08;101786.81;695594;28;46337;-65
2022/03/14 01:05:50;;;;;;;0.50;0.50;;;;;;;8.38;26.27;101794.91;696089;28;21699;-66
2022/03/14 01:06:12;;;;;;;0.40;0.40;;;;;;;8.37;26.01;101797.72;696054;28;23358;-66
2022/03/14 01:06:34;;;;;;;0.40;0.40;;;;;;;8.34;26.05;101790.78;694324;28;45283;-66
2022/03/14 01:06:56;;;;;;;0.40;0.40;;;;;;;8.33;26.00;101791.78;695697;28;46334;-66
2022/03/14 01:07:18;;;;;;;0.50;0.50;;;;;;;8.33;26.01;101790.94;696412;28;23476;-66
2022/03/14 01:07:39;;;;;;;0.50;0.50;;;;;;;8.31;25.91;101793.75;694663;28;67521;-66
2022/03/14 01:08:00;;;;;;;0.50;0.50;;;;;;;8.32;25.98;101789.22;696462;28;22403;-68
2022/03/14 01:08:21;;;;;;;0.50;0.50;;;;;;;8.29;25.88;101793.91;696363;28;21329;-66
2022/03/14 01:08:43;;;;;;;0.40;0.40;;;;;;;8.26;26.13;101794.16;696630;28;22468;-66
2022/03/14 01:09:05;;;;;;;0.45;0.45;;;;;;;8.26;26.15;101787.91;696488;28;22417;-67
2022/03/14 01:09:26;;;;;;;0.50;0.50;;;;;;;8.28;25.86;101794.88;694518;28;67522;-66
2022/03/14 01:09:49;;;;;;;0.50;0.50;;;;;;;8.27;25.99;101795.84;694532;28;69289;-66
2022/03/14 01:10:11;;;;;;;0.40;0.40;;;;;;;8.24;25.83;101796.13;696265;28;22407;-68
2022/03/14 01:10:32;;;;;;;0.40;0.40;;;;;;;8.21;26.01;101788.34;695409;28;46348;-67
2022/03/14 01:10:53;;;;;;;0.40;0.40;;;;;;;8.19;26.19;101793.00;695993;28;23475;-66
2022/03/14 01:11:14;;;;;;;0.57;0.57;;;;;;;8.17;26.05;101794.13;695869;28;22408;-68
2022/03/14 01:11:37;;;;;;;0.60;0.60;;;;;;;8.17;25.98;101794.97;695345;28;22409;-69
2022/03/14 01:11:58;;;;;;;0.50;0.50;;;;;;;8.19;25.94;101794.84;694677;28;70242;-67
2022/03/14 01:12:19;;;;;;;0.40;0.40;;;;;;;8.19;26.04;101792.16;696296;28;22427;-66
2022/03/14 01:12:40;;;;;;;0.40;0.40;;;;;;;8.18;26.03;101788.63;696585;28;22463;-66
2022/03/14 01:13:03;;;;;;;0.50;0.50;;;;;;;8.20;25.94;101792.00;696277;28;22437;-67
2022/03/14 01:13:27;;;;;;;0.60;0.60;;;;;;;8.20;26.27;101788.47;692847;28;113987;-66
2022/03/14 01:13:49;;;;;;;0.50;0.50;;;;;;;8.16;26.10;101784.34;695375;28;46349;-66
2022/03/14 01:14:11;;;;;;;0.50;0.50;;;;;;;8.17;26.26;101783.38;696367;28;22430;-66
2022/03/14 01:14:32;;;;;;;0.40;0.40;;;;;;;8.13;26.18;101788.16;691675;28;69440;-66
2022/03/14 01:14:56;;;;;;;0.47;0.47;;;;;;;8.12;26.32;101789.16;693680;28;23282;-66
2022/03/14 01:15:18;;;;;;;0.60;0.60;;;;;;;8.07;26.34;101786.00;692283;28;67505;-66
2022/03/14 01:15:41;;;;;;;0.50;0.50;;;;;;;8.04;26.50;101788.97;690691;28;70323;-66
2022/03/14 01:16:03;;;;;;;0.50;0.50;;;;;;;8.04;26.66;101787.13;691283;28;45212;-66
2022/03/14 01:16:24;;;;;;;0.50;0.50;;;;;;;8.04;26.65;101789.84;695371;28;1336;-66
2022/03/14 01:16:46;;;;;;;0.40;0.40;;;;;;;8.03;26.75;101789.97;695729;28;21528;-67
2022/03/14 01:17:08;;;;;;;0.52;0.52;;;;;;;8.02;26.59;101789.09;695741;28;46400;-66
2022/03/14 01:17:29;;;;;;;0.60;0.60;;;;;;;8.03;26.40;101789.97;695992;28;23484;-66
2022/03/14 01:17:50;;;;;;;0.50;0.50;;;;;;;8.03;26.38;101782.72;700990;28;22389;-66
2022/03/14 01:18:13;;;;;;;0.50;0.50;;;;;;;8.07;26.32;101780.63;698897;28;69377;-65
2022/03/14 01:18:35;;;;;;;0.40;0.40;;;;;;;8.09;26.20;101790.28;700205;28;69603;-66
2022/03/14 01:18:56;;;;;;;0.43;0.43;;;;;;;8.06;26.78;101784.31;701214;28;44425;-67
2022/03/14 01:19:19;;;;;;;0.60;0.60;;;;;;;8.04;26.49;101781.75;700824;28;22399;-66
2022/03/14 01:19:41;;;;;;;0.50;0.50;;;;;;;8.06;26.52;101785.16;698327;28;44422;-66
2022/03/14 01:20:02;;;;;;;0.50;0.50;;;;;;;8.07;26.59;101788.69;695791;28;45240;-66
2022/03/14 01:20:24;;;;;;;0.40;0.40;;;;;;;8.08;26.24;101785.03;694835;28;44357;-66
2022/03/14 01:20:46;;;;;;;0.43;0.43;;;;;;;8.04;26.47;101776.38;695347;28;45288;-66
2022/03/14 01:21:08;;;;;;;0.60;0.60;;;;;;;8.10;26.35;101781.22;696413;28;22298;-66
2022/03/14 01:21:31;;;;;;;0.60;0.60;;;;;;;8.10;26.40;101794.66;692417;28;92226;-67
2022/03/14 01:21:53;;;;;;;0.50;0.50;;;;;;;8.12;26.14;101791.84;695617;28;43869;-66
2022/03/14 01:22:15;;;;;;;0.40;0.40;;;;;;;8.14;26.07;101789.88;694721;28;45253;-66
2022/03/14 01:22:36;;;;;;;0.40;0.40;;;;;;;8.16;26.21;101787.03;695204;28;46362;-66
2022/03/14 01:22:59;;;;;;;0.45;0.45;;;;;;;8.12;26.27;101787.31;695451;28;46228;-66
2022/03/14 01:23:20;;;;;;;0.50;0.50;;;;;;;8.13;26.22;101793.53;696072;28;22402;-66
2022/03/14 01:23:42;;;;;;;0.50;0.50;;;;;;;8.14;26.29;101789.88;696659;28;21307;-66
2022/03/14 01:24:03;;;;;;;0.50;0.50;;;;;;;8.16;26.08;101789.72;695206;28;45292;-68
2022/03/14 01:24:24;;;;;;;0.40;0.40;;;;;;;8.16;25.94;101795.94;695438;28;46499;-67
2022/03/14 01:24:46;;;;;;;0.40;0.40;;;;;;;8.17;26.20;101799.53;695351;28;46435;-67
2022/03/14 01:25:08;;;;;;;0.50;0.50;;;;;;;8.16;26.33;101801.34;696447;28;21537;-66
2022/03/14 01:25:29;;;;;;;0.60;0.60;;;;;;;8.11;26.00;101793.66;695635;28;45259;-66
2022/03/14 01:25:51;;;;;;;0.50;0.50;;;;;;;8.10;26.07;101799.19;696068;28;21533;-67
2022/03/14 01:26:12;;;;;;;0.43;0.43;;;;;;;8.08;25.99;101801.16;696096;28;21573;-66
2022/03/14 01:26:37;;;;;;;0.40;0.40;;;;;;;8.06;26.41;101795.91;692443;28;92018;-66
2022/03/14 01:26:58;;;;;;;0.50;0.50;;;;;;;8.07;26.32;101794.94;694829;28;69424;-67
2022/03/14 01:27:20;;;;;;;0.50;0.50;;;;;;;8.08;26.53;101798.47;696205;28;22386;-66
2022/03/14 01:27:41;;;;;;;0.50;0.50;;;;;;;8.05;26.29;101798.75;696540;28;22347;-67
2022/03/14 01:28:03;;;;;;;0.50;0.50;;;;;;;8.05;26.16;101796.06;696402;28;21512;-67
2022/03/14 01:28:24;;;;;;;0.40;0.40;;;;;;;8.03;26.34;101793.50;694915;28;69411;-66
2022/03/14 01:28:45;;;;;;;0.40;0.40;;;;;;;8.01;26.49;101798.16;696147;28;21520;-68
2022/03/14 01:29:07;;;;;;;0.50;0.50;;;;;;;8.01;26.56;101797.28;696692;28;22205;-67
2022/03/14 01:29:29;;;;;;;0.50;0.50;;;;;;;8.00;26.55;101798.31;696329;28;21626;-66
2022/03/14 01:29:50;;;;;;;0.50;0.50;;;;;;;8.01;26.49;101800.00;695317;28;46296;-66
2022/03/14 01:30:11;;;;;;;0.47;0.47;;;;;;;7.97;26.51;101799.41;696406;28;21591;-66
2022/03/14 01:30:35;;;;;;;0.40;0.40;;;;;;;7.98;26.69;101800.25;693626;28;92166;-67
2022/03/14 01:30:58;;;;;;;0.50;0.50;;;;;;;7.99;26.70;101796.59;696564;28;20725;-65
2022/03/14 01:31:19;;;;;;;0.60;0.60;;;;;;;8.01;26.62;101794.59;693839;28;93270;-66
2022/03/14 01:31:41;;;;;;;0.50;0.50;;;;;;;8.00;26.66;101792.91;695806;28;21542;-67
2022/03/14 01:32:02;;;;;;;0.50;0.50;;;;;;;7.99;26.58;101794.75;696326;28;23561;-65
2022/03/14 01:32:24;;;;;;;0.40;0.40;;;;;;;7.99;26.72;101799.28;696828;28;1620;-67
2022/03/14 01:32:45;;;;;;;0.40;0.40;;;;;;;7.96;26.55;101795.00;695257;28;46419;-66
2022/03/14 01:33:06;;;;;;;0.50;0.50;;;;;;;7.97;26.40;101798.56;696029;28;22285;-67
2022/03/14 01:33:27;;;;;;;0.60;0.60;;;;;;;7.97;26.40;101804.78;695201;28;46236;-67
2022/03/14 01:33:49;;;;;;;0.50;0.50;;;;;;;7.98;26.27;101802.94;695761;28;45290;-66
2022/03/14 01:34:11;;;;;;;0.50;0.50;;;;;;;7.98;26.68;101797.56;695752;28;46631;-67
2022/03/14 01:34:32;;;;;;;0.40;0.40;;;;;;;7.96;26.67;101797.69;696520;28;21543;-65
2022/03/14 01:34:54;;;;;;;0.40;0.40;;;;;;;7.95;26.71;101806.78;696452;28;21347;-66
2022/03/14 01:35:17;;;;;;;0.60;0.60;;;;;;;7.94;26.51;101797.81;694848;28;46361;-67
2022/03/14 01:35:39;;;;;;;0.57;0.57;;;;;;;7.96;26.32;101797.69;695038;28;68245;-65
2022/03/14 01:36:00;;;;;;;0.50;0.50;;;;;;;7.97;26.59;101801.25;695184;28;44155;-66
2022/03/14 01:36:22;;;;;;;0.40;0.40;;;;;;;7.97;26.64;101801.25;695696;28;22403;-66
2022/03/14 01:36:43;;;;;;;0.40;0.40;;;;;;;7.97;26.64;101795.88;694636;28;44189;-68
2022/03/14 01:37:04;;;;;;;0.50;0.50;;;;;;;7.98;26.71;101798.44;696329;28;23396;-66
2022/03/14 01:37:26;;;;;;;0.60;0.60;;;;;;;7.99;26.49;101797.44;695491;28;44405;-66
2022/03/14 01:37:49;;;;;;;0.50;0.50;;;;;;;7.99;26.70;101796.59;695809;28;45416;-67
2022/03/14 01:38:11;;;;;;;0.50;0.50;;;;;;;8.01;26.42;101802.69;693882;28;90368;-66
2022/03/14 01:38:32;;;;;;;0.40;0.40;;;;;;;8.01;26.35;101794.59;696455;28;23646;-67
2022/03/14 01:38:53;;;;;;;0.40;0.40;;;;;;;7.99;26.46;101796.59;696611;28;21724;-66
2022/03/14 01:39:15;;;;;;;0.50;0.50;;;;;;;7.96;26.29;101792.31;696329;28;22217;-66
2022/03/14 01:39:37;;;;;;;0.50;0.50;;;;;;;7.94;26.41;101803.22;694256;28;69528;-66
2022/03/14 01:39:58;;;;;;;0.50;0.50;;;;;;;7.97;26.31;101801.25;695526;28;44381;-67
2022/03/14 01:40:19;;;;;;;0.43;0.43;;;;;;;7.97;26.42;101803.94;696383;28;24024;-67
2022/03/14 01:40:41;;;;;;;0.40;0.40;;;;;;;7.97;26.50;101799.41;696436;28;22241;-66
2022/03/14 01:41:02;;;;;;;0.50;0.50;;;;;;;7.98;26.39;101801.13;695422;28;47163;-66
2022/03/14 01:41:23;;;;;;;0.60;0.60;;;;;;;7.96;26.50;101797.69;696256;28;22282;-68
2022/03/14 01:41:46;;;;;;;0.60;0.60;;;;;;;7.99;26.45;101801.97;693670;28;69396;-66
2022/03/14 01:42:08;;;;;;;0.50;0.50;;;;;;;7.97;26.49;101795.88;696529;28;21593;-66
2022/03/14 01:42:29;;;;;;;0.45;0.45;;;;;;;7.98;26.50;101798.44;696394;28;19300;-66
2022/03/14 01:42:51;;;;;;;0.40;0.40;;;;;;;8.00;26.53;101798.31;696268;28;23535;-66
2022/03/14 01:43:12;;;;;;;0.50;0.50;;;;;;;7.99;26.40;101794.75;695063;28;45208;-65
2022/03/14 01:43:34;;;;;;;0.60;0.60;;;;;;;8.00;26.57;101796.44;696197;28;21523;-67
2022/03/14 01:43:55;;;;;;;0.50;0.50;;;;;;;8.00;26.62;101801.00;695345;28;46132;-67
2022/03/14 01:44:17;;;;;;;0.50;0.50;;;;;;;7.97;26.67;101798.56;696244;28;23479;-66
2022/03/14 01:44:40;;;;;;;0.40;0.40;;;;;;;7.97;26.62;101798.56;694466;28;69710;-65
2022/03/14 01:45:04;;;;;;;0.40;0.40;;;;;;;7.97;26.32;101796.72;695328;28;46292;-68